createdAt,value
2022-12-01T00:01:07.504Z,16.42
2022-12-01T00:03:34.075Z,15.60
2022-12-01T00:06:09.873Z,15.70
2022-12-01T00:08:36.603Z,16.70
2022-12-01T00:11:05.380Z,16.10
2022-12-01T00:13:32.200Z,17.60
2022-12-01T00:15:58.752Z,16.15
2022-12-01T00:18:25.193Z,16.02
2022-12-01T00:20:51.667Z,18.58
2022-12-01T00:23:20.706Z,17.85
2022-12-01T00:25:47.074Z,16.08
2022-12-01T00:28:13.370Z,17.30
2022-12-01T00:30:39.786Z,17.48
2022-12-01T00:33:06.154Z,15.40
2022-12-01T00:35:32.549Z,16.35
2022-12-01T00:37:58.904Z,17.63
2022-12-01T00:40:25.294Z,16.55
2022-12-01T00:42:51.597Z,16.95
2022-12-01T00:45:17.961Z,17.15
2022-12-01T00:47:44.235Z,17.13
2022-12-01T00:50:10.917Z,16.83
2022-12-01T00:52:37.259Z,17.42
2022-12-01T00:55:03.847Z,17.45
2022-12-01T00:57:30.462Z,17.10
2022-12-01T00:59:56.795Z,15.82
2022-12-01T01:02:23.226Z,17.33
2022-12-01T01:04:49.581Z,16.65
2022-12-01T01:07:16.219Z,16.10
2022-12-01T01:09:42.544Z,16.98
2022-12-01T01:12:08.965Z,16.50
2022-12-01T01:14:35.307Z,17.58
2022-12-01T01:17:01.771Z,17.98
2022-12-01T01:19:28.204Z,15.27
2022-12-01T01:21:54.528Z,16.13
2022-12-01T01:24:20.880Z,16.67
2022-12-01T01:26:47.192Z,16.80
2022-12-01T01:29:14.600Z,16.58
2022-12-01T01:31:40.941Z,17.25
2022-12-01T01:34:10.181Z,15.80
2022-12-01T01:36:36.483Z,15.77
2022-12-01T01:39:03.753Z,17.15
2022-12-01T01:41:30.087Z,15.20
2022-12-01T01:43:58.866Z,16.45
2022-12-01T01:46:31.004Z,17.85
2022-12-01T01:48:59.031Z,15.70
2022-12-01T01:51:33.429Z,16.63
2022-12-01T01:54:05.694Z,15.63
2022-12-01T01:56:32.880Z,16.35
2022-12-01T01:58:59.725Z,16.23
2022-12-01T02:01:26.168Z,16.48
2022-12-01T02:03:53.817Z,17.30
2022-12-01T02:06:21.839Z,16.30
2022-12-01T02:08:48.194Z,18.17
2022-12-01T02:11:48.841Z,16.08
2022-12-01T02:14:54.726Z,14.20
2022-12-01T02:17:45.857Z,17.15
2022-12-01T02:20:24.265Z,15.38
2022-12-01T02:23:18.397Z,15.18
2022-12-01T02:26:10.351Z,16.05
2022-12-01T02:29:01.529Z,15.75
2022-12-01T02:31:39.915Z,17.13
2022-12-01T02:34:37.845Z,16.45
2022-12-01T02:37:10.315Z,16.25
2022-12-01T02:39:48.575Z,16.23
2022-12-01T02:42:27.543Z,14.88
2022-12-01T02:44:55.813Z,16.88
2022-12-01T02:47:22.518Z,15.68
2022-12-01T02:49:51.625Z,16.33
2022-12-01T02:52:19.557Z,17.52
2022-12-01T02:54:47.527Z,17.10
2022-12-01T02:57:15.641Z,16.65
2022-12-01T02:59:44.888Z,16.05
2022-12-01T03:02:42.280Z,15.75
2022-12-01T03:05:29.752Z,18.10
2022-12-01T03:08:21.031Z,16.02
2022-12-01T03:10:55.044Z,16.40
2022-12-01T03:13:50.326Z,16.67
2022-12-01T03:16:26.323Z,15.30
2022-12-01T03:19:00.728Z,17.20
2022-12-01T03:21:32.415Z,16.55
2022-12-01T03:24:03.758Z,16.70
2022-12-01T03:26:34.536Z,17.40
2022-12-01T03:29:09.340Z,17.60
2022-12-01T03:31:42.241Z,17.48
2022-12-01T03:34:13.933Z,15.70
2022-12-01T03:36:45.569Z,18.40
2022-12-01T03:39:17.046Z,16.50
2022-12-01T03:42:18.498Z,17.45
2022-12-01T03:44:50.192Z,16.13
2022-12-01T03:47:20.487Z,16.02
2022-12-01T03:49:50.153Z,16.25
2022-12-01T03:52:33.622Z,16.90
2022-12-01T03:55:12.933Z,16.73
2022-12-01T03:58:01.092Z,17.77
2022-12-01T04:00:29.061Z,17.25
2022-12-01T04:03:00.329Z,15.88
2022-12-01T04:05:27.175Z,17.80
2022-12-01T04:07:53.760Z,18.65
2022-12-01T04:10:20.176Z,17.55
2022-12-01T04:12:46.461Z,16.38
2022-12-01T04:15:13.422Z,17.55
2022-12-01T04:17:40.975Z,16.40
2022-12-01T04:20:07.833Z,16.20
2022-12-01T04:22:34.262Z,17.42
2022-12-01T04:25:00.601Z,16.20
2022-12-01T04:27:26.892Z,16.58
2022-12-01T04:29:53.155Z,17.55
2022-12-01T04:32:19.558Z,15.95
2022-12-01T04:34:46.075Z,17.83
2022-12-01T04:37:12.401Z,17.55
2022-12-01T04:39:38.747Z,16.15
2022-12-01T04:42:05.240Z,16.80
2022-12-01T04:44:35.000Z,16.85
2022-12-01T04:47:03.348Z,16.90
2022-12-01T04:49:31.291Z,16.17
2022-12-01T04:51:57.914Z,17.20
2022-12-01T04:54:24.945Z,16.77
2022-12-01T04:56:51.437Z,15.38
2022-12-01T04:59:17.766Z,16.67
2022-12-01T05:01:44.117Z,16.17
2022-12-01T05:04:12.091Z,16.17
2022-12-01T05:06:38.483Z,16.23
2022-12-01T05:09:05.588Z,16.02
2022-12-01T05:11:32.483Z,17.85
2022-12-01T05:13:59.404Z,17.77
2022-12-01T05:16:31.538Z,16.05
2022-12-01T05:19:01.315Z,17.00
2022-12-01T05:21:29.993Z,16.63
2022-12-01T05:23:56.321Z,16.88
2022-12-01T05:26:22.645Z,17.42
2022-12-01T05:28:48.940Z,16.27
2022-12-01T05:31:15.344Z,15.82
2022-12-01T05:33:43.733Z,16.42
2022-12-01T05:36:10.128Z,16.85
2022-12-01T05:38:36.453Z,16.20
2022-12-01T05:41:02.772Z,17.73
2022-12-01T05:43:29.822Z,15.60
2022-12-01T05:45:57.437Z,16.20
2022-12-01T05:48:24.152Z,17.60
2022-12-01T05:50:50.749Z,16.73
2022-12-01T05:53:18.107Z,17.90
2022-12-01T05:55:44.626Z,15.93
2022-12-01T05:58:11.354Z,15.73
2022-12-01T06:00:45.292Z,16.33
2022-12-01T06:03:12.938Z,17.23
2022-12-01T06:05:39.746Z,16.88
2022-12-01T06:08:06.178Z,16.52
2022-12-01T06:10:32.726Z,17.20
2022-12-01T06:12:59.159Z,16.45
2022-12-01T06:15:25.985Z,16.60
2022-12-01T06:17:52.265Z,16.08
2022-12-01T06:20:18.582Z,15.80
2022-12-01T06:22:44.838Z,16.63
2022-12-01T06:25:11.219Z,16.15
2022-12-01T06:27:37.498Z,15.93
2022-12-01T06:30:04.801Z,16.83
2022-12-01T06:32:31.192Z,15.23
2022-12-01T06:34:57.636Z,17.23
2022-12-01T06:37:24.017Z,16.67
2022-12-01T06:39:50.705Z,16.95
2022-12-01T06:42:17.226Z,16.10
2022-12-01T06:44:43.665Z,16.15
2022-12-01T06:47:10.129Z,16.67
2022-12-01T06:49:36.444Z,16.65
2022-12-01T06:52:02.746Z,16.35
2022-12-01T06:54:29.149Z,15.73
2022-12-01T06:56:55.494Z,16.30
2022-12-01T06:59:22.168Z,16.45
2022-12-01T07:01:48.808Z,16.42
2022-12-01T07:04:15.219Z,16.13
2022-12-01T07:06:41.497Z,16.27
2022-12-01T07:09:07.788Z,17.73
2022-12-01T07:11:34.203Z,15.95
2022-12-01T07:14:00.531Z,16.00
2022-12-01T07:16:26.996Z,15.77
2022-12-01T07:18:53.564Z,16.17
2022-12-01T07:21:19.952Z,16.50
2022-12-01T07:23:46.472Z,16.15
2022-12-01T07:26:16.032Z,15.63
2022-12-01T07:28:43.113Z,15.63
2022-12-01T07:31:11.597Z,16.40
2022-12-01T07:33:38.079Z,16.88
2022-12-01T07:36:05.805Z,15.68
2022-12-01T07:38:33.120Z,17.25
2022-12-01T07:41:03.898Z,17.52
2022-12-01T07:43:32.032Z,16.25
2022-12-01T07:46:20.311Z,15.93
2022-12-01T07:48:48.904Z,16.75
2022-12-01T07:51:16.397Z,16.92
2022-12-01T07:53:44.190Z,15.60
2022-12-01T07:56:10.741Z,16.92
2022-12-01T07:58:37.596Z,16.05
2022-12-01T08:01:08.053Z,17.70
2022-12-01T08:03:34.662Z,15.00
2022-12-01T08:06:02.173Z,16.73
2022-12-01T08:08:30.046Z,16.55
2022-12-01T08:11:00.813Z,17.42
2022-12-01T08:13:27.406Z,17.15
2022-12-01T08:15:53.856Z,16.77
2022-12-01T08:18:20.162Z,16.58
2022-12-01T08:20:46.414Z,16.88
2022-12-01T08:23:12.792Z,16.50
2022-12-01T08:25:39.157Z,16.55
2022-12-01T08:28:05.514Z,17.00
2022-12-01T08:30:31.879Z,15.85
2022-12-01T08:32:58.425Z,17.95
2022-12-01T08:35:25.105Z,16.20
2022-12-01T08:37:52.279Z,18.73
2022-12-01T08:40:18.735Z,16.30
2022-12-01T08:42:45.587Z,17.35
2022-12-01T08:45:11.995Z,15.75
2022-12-01T08:47:38.370Z,17.60
2022-12-01T08:50:05.478Z,16.13
2022-12-01T08:52:33.134Z,17.88
2022-12-01T08:55:00.460Z,19.35
2022-12-01T08:57:29.212Z,16.52
2022-12-01T08:59:55.904Z,18.30
2022-12-01T09:02:22.554Z,17.15
2022-12-01T09:04:49.371Z,19.17
2022-12-01T09:07:19.087Z,19.55
2022-12-01T09:09:49.665Z,17.27
2022-12-01T09:12:16.171Z,17.83
2022-12-01T09:14:44.068Z,17.25
2022-12-01T09:17:10.372Z,17.20
2022-12-01T09:19:36.698Z,16.42
2022-12-01T09:22:03.083Z,18.35
2022-12-01T09:24:29.441Z,16.27
2022-12-01T09:26:59.782Z,17.85
2022-12-01T09:29:26.676Z,18.65
2022-12-01T09:31:56.407Z,17.30
2022-12-01T09:34:23.225Z,18.00
2022-12-01T09:36:49.543Z,17.65
2022-12-01T09:39:18.698Z,16.52
2022-12-01T09:41:57.794Z,17.25
2022-12-01T09:44:30.437Z,16.85
2022-12-01T09:47:09.488Z,19.70
2022-12-01T09:49:44.679Z,16.10
2022-12-01T09:52:15.762Z,18.23
2022-12-01T09:54:42.150Z,18.42
2022-12-01T09:57:17.682Z,16.58
2022-12-01T09:59:45.945Z,18.08
2022-12-01T10:02:31.639Z,19.33
2022-12-01T10:05:00.575Z,17.35
2022-12-01T10:07:31.538Z,18.00
2022-12-01T10:10:01.332Z,16.65
2022-12-01T10:12:33.520Z,18.90
2022-12-01T10:15:42.787Z,17.33
2022-12-01T10:19:00.252Z,20.02
2022-12-01T10:21:32.254Z,19.17
2022-12-01T10:24:08.473Z,19.88
2022-12-01T10:26:50.528Z,19.42
2022-12-01T10:29:26.730Z,17.52
2022-12-01T10:31:54.631Z,18.63
2022-12-01T10:34:28.838Z,18.63
2022-12-01T10:36:56.275Z,17.15
2022-12-01T10:39:29.742Z,21.63
2022-12-01T10:42:04.791Z,19.33
2022-12-01T10:44:31.528Z,19.27
2022-12-01T10:46:58.543Z,20.33
2022-12-01T10:49:40.316Z,19.55
2022-12-01T10:52:07.684Z,18.10
2022-12-01T10:54:39.981Z,20.90
2022-12-01T10:57:15.726Z,17.58
2022-12-01T10:59:48.180Z,19.38
2022-12-01T11:02:19.461Z,16.58
2022-12-01T11:04:55.875Z,18.17
2022-12-01T11:07:26.755Z,18.67
2022-12-01T11:10:15.008Z,19.08
2022-12-01T11:12:43.322Z,18.52
2022-12-01T11:15:22.424Z,19.58
2022-12-01T11:17:56.194Z,17.15
2022-12-01T11:20:35.223Z,18.70
2022-12-01T11:23:19.758Z,20.88
2022-12-01T11:26:14.857Z,19.65
2022-12-01T11:29:25.634Z,19.20
2022-12-01T11:31:52.192Z,18.92
2022-12-01T11:34:28.773Z,18.88
2022-12-01T11:37:01.220Z,16.85
2022-12-01T11:39:31.409Z,18.70
2022-12-01T11:42:02.446Z,19.33
2022-12-01T11:47:27.371Z,18.85
2022-12-01T11:49:56.767Z,15.70
2022-12-01T11:52:24.997Z,16.20
2022-12-01T11:54:56.998Z,16.05
2022-12-01T11:57:34.312Z,15.68
2022-12-01T12:00:13.132Z,15.00
2022-12-01T12:03:08.531Z,14.50
2022-12-01T12:06:01.379Z,16.50
2022-12-01T12:08:49.238Z,15.65
2022-12-01T12:11:15.573Z,14.73
2022-12-01T12:14:20.146Z,15.73
2022-12-01T12:17:20.944Z,15.82
2022-12-01T12:20:21.319Z,14.70
2022-12-01T12:23:09.359Z,16.10
2022-12-01T12:26:02.796Z,16.08
2022-12-01T12:29:13.765Z,16.23
2022-12-01T12:32:08.117Z,14.30
2022-12-01T12:34:55.435Z,15.27
2022-12-01T12:37:47.047Z,15.25
2022-12-01T12:40:30.145Z,16.13
2022-12-01T12:43:05.511Z,14.82
2022-12-01T12:45:50.330Z,15.02
2022-12-01T12:49:18.777Z,15.18
2022-12-01T12:52:08.376Z,14.68
2022-12-01T12:55:22.967Z,16.48
2022-12-01T12:57:56.497Z,17.55
2022-12-01T13:00:27.994Z,15.50
2022-12-01T13:03:12.558Z,15.52
2022-12-01T13:05:46.177Z,15.95
2022-12-01T13:08:50.400Z,16.90
2022-12-01T13:11:32.381Z,16.17
2022-12-01T13:14:05.443Z,15.07
2022-12-01T13:16:36.788Z,15.25
2022-12-01T13:19:11.918Z,15.32
2022-12-01T13:21:44.404Z,15.30
2022-12-01T13:24:16.303Z,14.38
2022-12-01T13:26:50.962Z,13.70
2022-12-01T13:29:21.881Z,13.55
2022-12-01T13:31:50.815Z,14.52
2022-12-01T13:34:23.718Z,13.57
2022-12-01T13:36:51.871Z,14.43
2022-12-01T13:39:20.043Z,14.30
2022-12-01T13:41:57.772Z,15.27
2022-12-01T13:44:45.086Z,15.48
2022-12-01T13:47:11.404Z,13.30
2022-12-01T13:49:45.213Z,13.77
2022-12-01T13:52:27.195Z,13.38
2022-12-01T13:55:22.353Z,12.27
2022-12-01T13:58:10.014Z,11.30
2022-12-01T14:00:36.813Z,13.25
2022-12-01T14:03:12.267Z,13.65
2022-12-01T14:05:41.721Z,13.30
2022-12-01T14:08:31.140Z,13.80
2022-12-01T14:11:04.246Z,12.18
2022-12-01T14:13:32.580Z,12.25
2022-12-01T14:16:01.242Z,12.70
2022-12-01T14:18:34.758Z,10.80
2022-12-01T14:21:04.155Z,13.38
2022-12-01T14:23:33.944Z,12.82
2022-12-01T14:26:13.720Z,12.68
2022-12-01T14:28:55.471Z,11.98
2022-12-01T14:31:23.619Z,11.95
2022-12-01T14:34:03.208Z,10.90
2022-12-01T14:36:37.278Z,11.68
2022-12-01T14:39:11.968Z,11.95
2022-12-01T14:41:51.996Z,12.07
2022-12-01T14:44:24.216Z,11.38
2022-12-01T14:47:15.539Z,10.77
2022-12-01T14:50:07.486Z,11.50
2022-12-01T14:52:37.886Z,11.48
2022-12-01T14:55:14.910Z,10.75
2022-12-01T14:57:46.013Z,11.95
2022-12-01T15:00:14.293Z,10.90
2022-12-01T15:02:43.844Z,10.48
2022-12-01T15:05:15.833Z,11.38
2022-12-01T15:07:45.655Z,11.70
2022-12-01T15:10:26.358Z,12.18
2022-12-01T15:12:53.898Z,10.77
2022-12-01T15:15:24.422Z,11.60
2022-12-01T15:17:55.041Z,11.80
2022-12-01T15:20:37.244Z,11.43
2022-12-01T15:23:14.375Z,11.15
2022-12-01T15:25:45.699Z,11.90
2022-12-01T15:28:21.002Z,11.25
2022-12-01T15:30:51.213Z,11.05
2022-12-01T15:33:36.789Z,11.93
2022-12-01T15:36:04.482Z,11.90
2022-12-01T15:38:37.960Z,11.27
2022-12-01T15:41:28.412Z,11.18
2022-12-01T15:43:57.298Z,12.20
2022-12-01T15:46:32.601Z,10.77
2022-12-01T15:49:19.136Z,11.60
2022-12-01T15:51:47.925Z,11.18
2022-12-01T15:54:26.191Z,11.40
2022-12-01T15:56:57.766Z,12.00
2022-12-01T15:59:40.558Z,11.90
2022-12-01T16:02:18.934Z,11.15
2022-12-01T16:04:46.671Z,11.20
2022-12-01T16:07:14.103Z,11.48
2022-12-01T16:09:57.972Z,11.10
2022-12-01T16:12:26.881Z,11.68
2022-12-01T16:15:12.187Z,11.70
2022-12-01T16:17:52.192Z,11.80
2022-12-01T16:20:30.987Z,11.27
2022-12-01T16:23:02.988Z,12.60
2022-12-01T16:25:39.026Z,12.02
2022-12-01T16:28:17.930Z,13.40
2022-12-01T16:30:44.311Z,13.57
2022-12-01T16:33:17.629Z,12.40
2022-12-01T16:35:44.516Z,13.02
2022-12-01T16:38:17.076Z,12.90
2022-12-01T16:40:43.602Z,12.80
2022-12-01T16:43:18.691Z,12.90
2022-12-01T16:45:46.958Z,13.73
2022-12-01T16:48:13.388Z,12.95
2022-12-01T16:50:40.047Z,13.75
2022-12-01T16:53:06.457Z,13.63
2022-12-01T16:55:49.508Z,13.38
2022-12-01T16:58:15.910Z,12.75
2022-12-01T17:00:42.385Z,13.38
2022-12-01T17:03:12.004Z,13.82
2022-12-01T17:05:41.151Z,14.18
2022-12-01T17:08:07.655Z,15.30
2022-12-01T17:10:35.283Z,14.45
2022-12-01T17:13:01.710Z,15.05
2022-12-01T17:15:28.126Z,15.27
2022-12-01T17:17:54.488Z,15.60
2022-12-01T17:20:20.811Z,14.70
2022-12-01T17:22:47.231Z,14.80
2022-12-01T17:25:13.792Z,14.75
2022-12-01T17:27:40.190Z,14.82
2022-12-01T17:30:07.155Z,15.32
2022-12-01T17:32:33.670Z,14.40
2022-12-01T17:35:00.082Z,14.98
2022-12-01T17:37:26.451Z,14.52
2022-12-01T17:39:52.832Z,14.95
2022-12-01T17:42:19.157Z,14.25
2022-12-01T17:44:45.643Z,14.90
2022-12-01T17:47:12.662Z,15.00
2022-12-01T17:49:39.015Z,13.90
2022-12-01T17:52:06.448Z,15.20
2022-12-01T17:54:32.855Z,14.98
2022-12-01T17:56:59.318Z,14.45
2022-12-01T17:59:25.823Z,13.98
2022-12-01T18:01:52.358Z,14.57
2022-12-01T18:04:18.793Z,14.30
2022-12-01T18:06:47.987Z,14.85
2022-12-01T18:09:18.686Z,15.40
2022-12-01T18:11:45.101Z,14.52
2022-12-01T18:14:11.504Z,14.63
2022-12-01T18:16:37.954Z,14.48
2022-12-01T18:19:04.337Z,14.95
2022-12-01T18:21:30.670Z,16.10
2022-12-01T18:24:01.837Z,15.98
2022-12-01T18:26:29.802Z,15.93
2022-12-01T18:29:01.466Z,16.83
2022-12-01T18:31:29.175Z,17.55
2022-12-01T18:33:58.570Z,16.60
2022-12-01T18:36:26.052Z,16.67
2022-12-01T18:38:53.308Z,17.90
2022-12-01T18:41:20.432Z,18.27
2022-12-01T18:43:46.729Z,17.30
2022-12-01T18:46:14.574Z,16.67
2022-12-01T18:48:50.132Z,17.75
2022-12-01T18:51:17.029Z,18.50
2022-12-01T18:53:43.390Z,16.67
2022-12-01T18:56:11.765Z,18.10
2022-12-01T18:58:39.168Z,16.38
2022-12-01T19:01:21.156Z,16.92
2022-12-01T19:03:48.024Z,17.65
2022-12-01T19:06:15.389Z,17.40
2022-12-01T19:08:42.086Z,17.17
2022-12-01T19:11:08.511Z,17.65
2022-12-01T19:13:35.790Z,17.75
2022-12-01T19:16:07.400Z,19.38
2022-12-01T19:18:35.227Z,18.30
2022-12-01T19:21:03.795Z,18.02
2022-12-01T19:23:30.742Z,18.55
2022-12-01T19:25:57.482Z,17.92
2022-12-01T19:28:23.889Z,17.75
2022-12-01T19:30:50.782Z,18.05
2022-12-01T19:33:17.148Z,18.13
2022-12-01T19:35:43.457Z,18.45
2022-12-01T19:38:09.761Z,17.15
2022-12-01T19:40:37.647Z,17.13
2022-12-01T19:43:05.247Z,16.85
2022-12-01T19:45:31.644Z,17.35
2022-12-01T19:47:58.005Z,16.30
2022-12-01T19:50:24.345Z,16.63
2022-12-01T19:52:50.647Z,16.95
2022-12-01T19:55:17.035Z,17.23
2022-12-01T19:57:43.336Z,18.02
2022-12-01T20:00:10.471Z,16.25
2022-12-01T20:02:36.903Z,16.02
2022-12-01T20:05:03.351Z,16.05
2022-12-01T20:07:30.399Z,15.27
2022-12-01T20:09:56.688Z,16.13
2022-12-01T20:12:23.084Z,16.85
2022-12-01T20:14:49.672Z,16.42
2022-12-01T20:17:16.257Z,16.83
2022-12-01T20:19:42.607Z,16.98
2022-12-01T20:22:08.970Z,15.88
2022-12-01T20:24:35.455Z,16.63
2022-12-01T20:27:01.926Z,15.57
2022-12-01T20:29:29.337Z,15.10
2022-12-01T20:31:57.637Z,15.65
2022-12-01T20:34:27.579Z,15.05
2022-12-01T20:36:54.413Z,15.93
2022-12-01T20:39:22.693Z,15.02
2022-12-01T20:41:49.408Z,15.27
2022-12-01T20:44:17.279Z,16.23
2022-12-01T20:46:44.694Z,15.05
2022-12-01T20:49:12.087Z,15.20
2022-12-01T20:51:38.690Z,14.85
2022-12-01T20:56:55.115Z,15.30
2022-12-01T20:59:21.391Z,15.07
2022-12-01T21:01:47.666Z,15.85
2022-12-01T21:04:14.035Z,15.48
2022-12-01T21:06:40.441Z,14.80
2022-12-01T21:09:06.774Z,15.32
2022-12-01T21:11:36.998Z,15.07
2022-12-01T21:14:04.427Z,15.30
2022-12-01T21:16:32.952Z,14.90
2022-12-01T21:19:02.244Z,15.02
2022-12-01T21:21:31.082Z,15.38
2022-12-01T21:24:15.593Z,13.90
2022-12-01T21:26:47.356Z,15.05
2022-12-01T21:29:18.795Z,14.02
2022-12-01T21:31:46.372Z,15.35
2022-12-01T21:34:26.899Z,15.05
2022-12-01T21:36:56.630Z,14.80
2022-12-01T21:39:24.813Z,15.30
2022-12-01T21:41:58.454Z,15.48
2022-12-01T21:44:35.847Z,15.32
2022-12-01T21:47:20.560Z,15.27
2022-12-01T21:49:50.910Z,14.55
2022-12-01T21:52:22.826Z,15.23
2022-12-01T21:54:49.893Z,15.40
2022-12-01T21:57:46.699Z,14.82
2022-12-01T22:00:31.100Z,15.63
2022-12-01T22:03:19.158Z,14.98
2022-12-01T22:06:06.953Z,16.45
2022-12-01T22:08:37.703Z,15.48
2022-12-01T22:11:16.161Z,14.43
2022-12-01T22:14:10.178Z,14.27
2022-12-01T22:16:41.149Z,15.65
2022-12-01T22:19:16.487Z,15.23
2022-12-01T22:21:48.120Z,15.25
2022-12-01T22:24:25.431Z,15.95
2022-12-01T22:27:18.937Z,15.23
2022-12-01T22:29:47.077Z,15.07
2022-12-01T22:32:13.431Z,14.70
2022-12-01T22:34:45.105Z,16.80
2022-12-01T22:37:30.856Z,15.98
2022-12-01T22:39:57.324Z,17.25
2022-12-01T22:42:34.645Z,16.25
2022-12-01T22:45:25.298Z,17.70
2022-12-01T22:47:57.687Z,15.18
2022-12-01T22:50:30.170Z,15.65
2022-12-01T22:53:12.087Z,15.48
2022-12-01T22:55:39.699Z,15.25
2022-12-01T22:58:18.008Z,18.08
2022-12-01T23:00:44.347Z,17.15
2022-12-01T23:03:11.870Z,15.38
2022-12-01T23:05:38.552Z,15.93
2022-12-01T23:08:09.624Z,15.45
2022-12-01T23:10:38.365Z,15.57
2022-12-01T23:13:25.010Z,14.85
2022-12-01T23:15:52.919Z,19.05
2022-12-01T23:18:25.196Z,18.00
2022-12-01T23:20:57.126Z,14.80
2022-12-01T23:23:32.229Z,19.73
2022-12-01T23:26:01.092Z,18.10
2022-12-01T23:28:30.082Z,16.02
2022-12-01T23:30:58.900Z,18.00
2022-12-01T23:33:29.969Z,22.40
2022-12-01T23:36:06.884Z,22.67
2022-12-01T23:38:39.227Z,24.17
2022-12-01T23:41:10.334Z,22.17
2022-12-01T23:43:42.760Z,17.73
2022-12-01T23:46:15.810Z,19.20
2022-12-01T23:49:07.604Z,18.45
2022-12-01T23:51:40.643Z,21.08
2022-12-01T23:54:14.740Z,23.95
2022-12-01T23:56:41.216Z,21.90
2022-12-01T23:59:13.324Z,18.75
